Time;durP1;ratioP1;P1;durP2;ratioP2;P2;SDS_P1;SDS_P2;PMS_P1;PMS_P2;Temp;Humidity;BMP_temperature;BMP_pressure;BME280_temperature;BME280_humidity;BME280_pressure;Samples;Min_cycle;Max_cycle;Signal;HPM_P1;HPM_P2
2022/10/28 00:00:13;;;;;;;7.08;4.80;;;;;;;10.62;100.00;101246.73;1738751;81;21037;-48
2022/10/28 00:02:39;;;;;;;8.20;4.70;;;;;;;10.62;100.00;101246.73;1739019;82;21038;-40
2022/10/28 00:05:07;;;;;;;8.85;5.00;;;;;;;10.60;100.00;101242.75;1739059;82;21010;-40
2022/10/28 00:07:35;;;;;;;8.05;4.85;;;;;;;10.60;100.00;101251.91;1739037;82;21085;-48
2022/10/28 00:10:03;;;;;;;8.08;4.80;;;;;;;10.61;100.00;101251.48;1738861;82;21560;-40
2022/10/28 00:12:36;;;;;;;8.03;4.60;;;;;;;10.60;100.00;101244.49;1738913;82;21116;-48
2022/10/28 00:15:05;;;;;;;8.60;5.20;;;;;;;10.61;100.00;101248.47;1739310;82;21041;-39
2022/10/28 00:17:31;;;;;;;10.13;5.05;;;;;;;10.61;100.00;101242.32;1738792;82;21085;-39
2022/10/28 00:19:58;;;;;;;6.30;4.78;;;;;;;10.60;100.00;101245.37;1738917;82;21113;-41
2022/10/28 00:22:27;;;;;;;8.53;4.87;;;;;;;10.60;100.00;101235.33;1739017;82;21130;-40
2022/10/28 00:24:53;;;;;;;6.83;4.62;;;;;;;10.60;100.00;101230.10;1738956;82;21048;-48
2022/10/28 00:27:20;;;;;;;8.35;5.05;;;;;;;10.59;100.00;101229.22;1738805;82;21096;-48
2022/10/28 00:29:47;;;;;;;12.55;5.70;;;;;;;10.59;100.00;101231.84;1739040;82;21065;-40
2022/10/28 00:32:13;;;;;;;7.20;5.00;;;;;;;10.59;100.00;101229.66;1738937;82;21171;-39
2022/10/28 00:34:40;;;;;;;8.30;5.25;;;;;;;10.58;100.00;101230.09;1738988;82;21065;-48
2022/10/28 00:37:07;;;;;;;9.85;5.35;;;;;;;10.56;100.00;101221.78;1739020;82;21081;-43
2022/10/28 00:39:33;;;;;;;9.10;4.92;;;;;;;10.55;100.00;101220.91;1739119;82;21046;-39
2022/10/28 00:42:05;;;;;;;9.00;5.17;;;;;;;10.55;100.00;101221.30;1738787;82;21584;-48
2022/10/28 00:44:59;;;;;;;9.83;5.55;;;;;;;10.53;100.00;101229.13;1739131;82;21038;-39
2022/10/28 00:47:58;;;;;;;9.10;4.87;;;;;;;10.54;100.00;101226.09;1739058;82;21062;-47
2022/10/28 00:50:45;;;;;;;8.50;5.72;;;;;;;10.53;100.00;101230.88;1738955;82;21088;-48
2022/10/28 00:53:17;;;;;;;7.78;5.85;;;;;;;10.51;100.00;101228.67;1738943;82;21140;-48
2022/10/28 00:55:44;;;;;;;10.15;6.08;;;;;;;10.50;100.00;101230.84;1739011;82;21065;-47
2022/10/28 00:58:12;;;;;;;10.20;5.58;;;;;;;10.50;100.00;101237.39;1718287;82;21670;-39
2022/10/28 01:00:38;;;;;;;14.68;6.22;;;;;;;10.49;100.00;101238.22;1738901;81;21612;-48
2022/10/28 01:03:05;;;;;;;9.60;5.42;;;;;;;10.49;100.00;101235.59;1739032;82;21030;-39
2022/10/28 01:05:34;;;;;;;7.60;5.47;;;;;;;10.47;100.00;101233.40;1739202;82;21060;-48
2022/10/28 01:08:02;;;;;;;7.35;5.25;;;;;;;10.47;100.00;101230.78;1739073;82;21045;-47
2022/10/28 01:10:50;;;;;;;10.20;5.92;;;;;;;10.46;100.00;101232.52;1738981;82;21046;-39
2022/10/28 01:13:44;;;;;;;8.65;5.72;;;;;;;10.45;100.00;101245.16;1739033;82;21599;-39
2022/10/28 01:16:23;;;;;;;9.35;5.80;;;;;;;10.46;100.00;101246.91;1739395;82;21128;-48
2022/10/28 01:19:14;;;;;;;9.63;5.75;;;;;;;10.46;100.00;101250.84;1739282;82;21037;-38
2022/10/28 01:22:10;;;;;;;;;;;;;;;10.46;100.00;101253.45;1741622;82;21077;-48
2022/10/28 01:25:10;;;;;;;8.80;5.83;;;;;;;10.46;100.00;101251.27;1734822;82;20437;-48
2022/10/28 01:27:52;;;;;;;11.15;6.15;;;;;;;10.45;100.00;101258.67;1738945;82;21125;-39
2022/10/28 01:30:21;;;;;;;11.75;5.90;;;;;;;10.43;100.00;101249.47;1738994;82;21064;-39
2022/10/28 01:33:13;;;;;;;7.22;5.70;;;;;;;10.42;100.00;101252.94;1739181;82;21045;-48
2022/10/28 01:35:54;;;;;;;11.25;6.03;;;;;;;10.42;100.00;101249.02;1739162;82;21097;-47
2022/10/28 01:38:44;;;;;;;12.33;6.28;;;;;;;10.41;100.00;101243.34;1733418;82;21071;-39
2022/10/28 01:41:24;;;;;;;12.90;6.15;;;;;;;10.40;100.00;101250.74;1739107;82;21109;-39
2022/10/28 01:44:11;;;;;;;12.82;5.72;;;;;;;10.39;100.00;101251.17;1738676;82;21078;-47
2022/10/28 01:46:51;;;;;;;8.23;5.55;;;;;;;10.38;100.00;101248.54;1738993;82;21092;-39
2022/10/28 01:49:29;;;;;;;9.55;5.80;;;;;;;10.37;100.00;101251.98;1739176;82;21026;-48
2022/10/28 01:52:00;;;;;;;10.80;6.12;;;;;;;10.36;100.00;101254.16;1739175;82;21145;-39
2022/10/28 01:54:31;;;;;;;9.78;5.85;;;;;;;10.34;100.00;101254.57;1739174;82;21037;-47
2022/10/28 01:56:57;;;;;;;9.20;5.78;;;;;;;10.32;100.00;101250.63;1739146;82;21733;-40
2022/10/28 01:59:26;;;;;;;13.88;6.03;;;;;;;10.32;100.00;101254.55;1742978;81;21104;-42
2022/10/28 02:01:53;;;;;;;13.85;7.25;;;;;;;10.30;100.00;101260.17;1739118;82;21065;-49
2022/10/28 02:04:20;;;;;;;13.43;5.85;;;;;;;10.30;100.00;101261.47;1739313;82;20998;-39
2022/10/28 02:06:56;;;;;;;14.53;6.42;;;;;;;10.28;100.00;101259.70;1739013;82;21092;-47
2022/10/28 02:09:57;;;;;;;8.58;5.55;;;;;;;10.26;100.00;101260.08;1739012;82;21805;-40
2022/10/28 02:12:31;;;;;;;8.23;5.25;;;;;;;10.24;100.00;101262.69;1738136;82;21057;-47
2022/10/28 02:15:18;;;;;;;10.43;5.95;;;;;;;10.23;100.00;101262.23;1739153;82;21092;-48
2022/10/28 02:18:06;;;;;;;8.05;5.72;;;;;;;10.21;100.00;101270.46;1718150;82;21088;-40
2022/10/28 02:21:00;;;;;;;9.70;5.83;;;;;;;10.19;100.00;101261.69;1738952;82;21127;-39
2022/10/28 02:23:47;;;;;;;7.53;5.90;;;;;;;10.19;100.00;101264.73;1738666;82;21141;-39
2022/10/28 02:26:26;;;;;;;8.45;5.80;;;;;;;10.17;100.00;101266.02;1738988;82;21034;-48
2022/10/28 02:29:00;;;;;;;11.50;5.90;;;;;;;10.17;100.00;101266.02;1739254;82;21080;-48
2022/10/28 02:31:41;;;;;;;7.78;5.40;;;;;;;10.16;100.00;101272.55;1738970;82;21013;-40
2022/10/28 02:34:13;;;;;;;8.03;5.70;;;;;;;10.14;100.00;101271.19;1742765;81;21493;-39
2022/10/28 02:36:43;;;;;;;7.15;5.55;;;;;;;10.12;100.00;101276.40;1739017;82;21053;-40
2022/10/28 02:39:10;;;;;;;11.38;6.42;;;;;;;10.12;100.00;101269.86;1718469;82;20998;-39
2022/10/28 02:41:55;;;;;;;7.67;5.53;;;;;;;10.12;100.00;101277.70;1738855;82;21600;-47
2022/10/28 02:44:30;;;;;;;11.57;5.85;;;;;;;10.11;100.00;101279.88;1739112;82;21482;-45
2022/10/28 02:47:00;;;;;;;9.20;5.60;;;;;;;10.11;100.00;101282.92;1738778;82;21089;-48
2022/10/28 02:49:27;;;;;;;12.95;6.28;;;;;;;10.11;100.00;101285.53;1739302;82;21041;-49
2022/10/28 02:52:01;;;;;;;9.08;6.22;;;;;;;10.10;100.00;101291.63;1738846;82;21092;-48
2022/10/28 02:54:56;;;;;;;10.82;6.15;;;;;;;10.09;100.00;101286.82;1739131;82;20982;-46
2022/10/28 02:57:24;;;;;;;7.65;5.33;;;;;;;10.10;100.00;101291.19;1739131;82;21616;-48
2022/10/28 02:59:56;;;;;;;7.97;5.42;;;;;;;10.09;100.00;101290.74;1739045;81;21489;-48
2022/10/28 03:02:23;;;;;;;11.93;5.67;;;;;;;10.09;100.00;101288.13;1738836;82;21074;-48
2022/10/28 03:04:50;;;;;;;8.30;5.60;;;;;;;10.09;100.00;101287.25;1739060;82;20997;-40
2022/10/28 03:07:16;;;;;;;6.78;4.80;;;;;;;10.10;100.00;101287.70;1738998;82;21057;-40
2022/10/28 03:09:43;;;;;;;11.65;5.42;;;;;;;10.08;100.00;101285.03;1739091;82;21049;-48
2022/10/28 03:12:10;;;;;;;9.48;5.70;;;;;;;10.08;100.00;101289.38;1738901;82;21033;-47
2022/10/28 03:14:36;;;;;;;10.32;5.60;;;;;;;10.08;100.00;101288.08;1739010;82;21073;-38
2022/10/28 03:17:03;;;;;;;12.47;5.55;;;;;;;10.07;100.00;101293.73;1738859;82;21069;-47
2022/10/28 03:19:30;;;;;;;11.63;5.37;;;;;;;10.08;100.00;101290.69;1738874;82;21080;-38
2022/10/28 03:21:56;;;;;;;9.08;5.85;;;;;;;10.09;100.00;101287.25;1738832;82;21093;-39
2022/10/28 03:24:23;;;;;;;7.65;5.03;;;;;;;10.07;100.00;101288.50;1739067;82;21057;-47
2022/10/28 03:26:50;;;;;;;7.22;5.20;;;;;;;10.08;100.00;101287.64;1738908;82;21069;-47
2022/10/28 03:29:17;;;;;;;12.18;5.35;;;;;;;10.09;100.00;101288.56;1739072;82;21013;-47
2022/10/28 03:31:44;;;;;;;10.93;5.40;;;;;;;10.08;100.00;101281.11;1738970;82;21078;-48
2022/10/28 03:34:10;;;;;;;8.93;5.62;;;;;;;10.08;100.00;101284.16;1738890;82;20993;-39
2022/10/28 03:36:38;;;;;;;8.10;4.95;;;;;;;10.08;100.00;101279.80;1738869;82;21068;-39
2022/10/28 03:39:05;;;;;;;7.30;5.15;;;;;;;10.07;100.00;101283.28;1739197;82;21528;-48
2022/10/28 03:41:33;;;;;;;9.05;5.95;;;;;;;10.08;100.00;101285.46;1738930;82;21065;-48
2022/10/28 03:43:59;;;;;;;9.40;5.97;;;;;;;10.08;100.00;101281.54;1738805;82;21555;-48
2022/10/28 03:46:26;;;;;;;8.75;5.55;;;;;;;10.07;100.00;101285.89;1739124;82;21084;-40
2022/10/28 03:48:52;;;;;;;11.05;5.37;;;;;;;10.07;100.00;101283.28;1739193;82;21493;-39
2022/10/28 03:51:19;;;;;;;9.43;5.60;;;;;;;10.06;100.00;101282.83;1738828;82;21105;-48
2022/10/28 03:53:45;;;;;;;7.78;5.67;;;;;;;10.08;100.00;101283.72;1739418;82;20990;-48
2022/10/28 03:56:12;;;;;;;8.03;5.70;;;;;;;10.08;100.00;101277.19;1738993;82;21089;-47
2022/10/28 03:58:38;;;;;;;8.98;5.80;;;;;;;10.09;100.00;101278.10;1739103;82;21091;-39
2022/10/28 04:01:05;;;;;;;11.93;5.72;;;;;;;10.09;100.00;101278.98;1744872;81;21131;-48
2022/10/28 04:03:31;;;;;;;7.20;5.85;;;;;;;10.07;100.00;101281.97;1752822;82;21064;-48
2022/10/28 04:05:58;;;;;;;10.88;6.17;;;;;;;10.07;100.00;101281.97;1753030;82;21088;-39
2022/10/28 04:08:26;;;;;;;9.90;6.00;;;;;;;10.08;100.00;101281.54;1752553;82;21579;-47
2022/10/28 04:10:54;;;;;;;11.45;6.62;;;;;;;10.07;100.00;101282.40;1752832;82;21563;-47
2022/10/28 04:13:20;;;;;;;10.78;5.92;;;;;;;10.07;100.00;101283.70;1752862;82;21045;-39
2022/10/28 04:15:47;;;;;;;9.83;5.55;;;;;;;10.05;100.00;101283.69;1752797;80;21540;-41
2022/10/28 04:18:15;;;;;;;10.78;5.97;;;;;;;10.05;100.00;101283.69;1752835;82;21097;-39
2022/10/28 04:20:45;;;;;;;16.90;6.28;;;;;;;10.04;100.00;101291.52;1752850;82;21097;-48
2022/10/28 04:23:15;;;;;;;11.88;6.12;;;;;;;10.04;100.00;101291.52;1752981;82;21057;-39
2022/10/28 04:25:43;;;;;;;9.15;5.85;;;;;;;10.04;100.00;101291.52;1753322;82;21100;-40
2022/10/28 04:28:09;;;;;;;8.35;5.50;;;;;;;10.04;100.00;101292.83;1753095;81;21128;-39
2022/10/28 04:30:36;;;;;;;11.70;6.75;;;;;;;10.03;100.00;101295.87;1753392;82;21048;-39
2022/10/28 04:33:03;;;;;;;8.55;6.08;;;;;;;10.03;100.00;101289.33;1753045;82;21100;-39
2022/10/28 04:35:30;;;;;;;11.12;6.22;;;;;;;10.03;100.00;101293.64;1753215;82;21638;-47
2022/10/28 04:37:56;;;;;;;8.18;6.47;;;;;;;10.03;100.00;101289.33;1752972;82;21045;-47
2022/10/28 04:40:23;;;;;;;10.30;6.00;;;;;;;10.04;100.00;101288.90;1752984;82;21045;-47
2022/10/28 04:42:50;;;;;;;9.43;6.33;;;;;;;10.04;100.00;101282.36;1753280;82;21100;-47
2022/10/28 04:45:16;;;;;;;9.98;6.28;;;;;;;10.04;100.00;101291.52;1753022;82;21065;-41
2022/10/28 04:47:43;;;;;;;12.88;6.22;;;;;;;10.04;100.00;101283.23;1753066;82;21037;-48
2022/10/28 04:50:10;;;;;;;12.30;6.35;;;;;;;10.05;100.00;101296.77;1753295;82;21041;-39
2022/10/28 04:52:37;;;;;;;11.97;5.42;;;;;;;10.05;100.00;101290.66;1753023;82;21080;-47
2022/10/28 04:55:06;;;;;;;12.30;6.30;;;;;;;10.05;100.00;101294.58;1753040;82;21516;-39
2022/10/28 04:57:32;;;;;;;9.25;6.53;;;;;;;10.04;100.00;101297.63;1753024;82;21061;-48
2022/10/28 04:59:59;;;;;;;13.03;6.97;;;;;;;10.04;100.00;101292.39;1753339;82;21028;-48
2022/10/28 05:02:26;;;;;;;10.20;6.75;;;;;;;10.04;100.00;101300.66;1740358;81;21131;-48
2022/10/28 05:04:52;;;;;;;9.00;6.22;;;;;;;10.03;100.00;101301.49;1739073;82;21054;-39
2022/10/28 05:07:19;;;;;;;11.73;6.62;;;;;;;10.00;100.00;101306.25;1738920;82;21057;-40
2022/10/28 05:09:45;;;;;;;9.15;6.53;;;;;;;10.00;100.00;101310.60;1739059;82;21054;-48
2022/10/28 05:12:12;;;;;;;10.18;6.55;;;;;;;9.99;100.00;101308.84;1738614;82;21100;-49
2022/10/28 05:14:38;;;;;;;12.15;6.80;;;;;;;9.99;100.00;101311.46;1739019;82;21009;-49
2022/10/28 05:17:07;;;;;;;10.55;6.67;;;;;;;9.99;100.00;101308.84;1738883;82;21581;-49
2022/10/28 05:19:33;;;;;;;9.00;6.92;;;;;;;9.99;100.00;101313.64;1739207;82;21584;-40
2022/10/28 05:22:01;;;;;;;11.12;5.90;;;;;;;10.00;100.00;101312.78;1738783;81;21050;-39
2022/10/28 05:24:28;;;;;;;9.93;6.40;;;;;;;10.01;100.00;101317.16;1731849;82;21021;-47
2022/10/28 05:26:54;;;;;;;8.33;6.03;;;;;;;10.03;100.00;101319.80;1738092;82;21084;-47
2022/10/28 05:29:21;;;;;;;12.63;6.65;;;;;;;10.03;100.00;101318.09;1738204;82;20990;-39
2022/10/28 05:31:47;;;;;;;10.43;7.20;;;;;;;10.04;100.00;101318.53;1731113;82;21065;-39
2022/10/28 05:34:14;;;;;;;10.13;7.00;;;;;;;10.06;100.00;101319.86;1737232;82;21069;-40
2022/10/28 05:36:40;;;;;;;14.28;6.35;;;;;;;10.08;100.00;101322.06;1724081;82;21112;-40
2022/10/28 05:39:07;;;;;;;9.00;6.33;;;;;;;10.09;100.00;101315.59;1727689;82;21046;-49
2022/10/28 05:41:34;;;;;;;10.32;6.22;;;;;;;10.11;100.00;101318.22;1711672;82;20994;-49
2022/10/28 05:44:00;;;;;;;11.97;6.67;;;;;;;10.13;100.00;101312.58;1730522;82;21060;-47
2022/10/28 05:46:28;;;;;;;10.70;6.67;;;;;;;10.16;100.00;101318.30;1721528;82;21029;-48
2022/10/28 05:48:54;;;;;;;8.88;6.33;;;;;;;10.18;100.00;101313.55;1718839;82;21006;-48
2022/10/28 05:51:21;;;;;;;10.23;6.65;;;;;;;10.21;100.00;101314.05;1724829;82;21592;-48
2022/10/28 05:53:50;;;;;;;10.38;6.25;;;;;;;10.24;100.00;101314.99;1714602;82;21049;-40
2022/10/28 05:56:19;;;;;;;10.53;6.60;;;;;;;10.26;100.00;101314.61;1728238;81;21049;-48
2022/10/28 05:58:48;;;;;;;13.98;6.67;;;;;;;10.28;100.00;101315.51;1733712;81;20996;-49
2022/10/28 06:01:14;;;;;;;12.45;6.25;;;;;;;10.31;100.00;101318.16;1735065;80;21041;-40
2022/10/28 06:03:42;;;;;;;15.45;5.70;;;;;;;10.35;100.00;101316.06;1731547;80;21036;-40
2022/10/28 06:06:10;;;;;;;10.58;5.08;;;;;;;10.38;100.00;101314.82;1727342;80;20989;-40
2022/10/28 06:08:37;;;;;;;14.20;6.37;;;;;;;10.42;100.00;101313.11;1727740;82;20997;-48
2022/10/28 06:11:04;;;;;;;10.58;6.80;;;;;;;10.46;100.00;101316.67;1730008;80;21085;-39
2022/10/28 06:13:31;;;;;;;15.15;6.17;;;;;;;10.51;100.00;101313.71;1730763;82;20997;-39
2022/10/28 06:15:58;;;;;;;13.75;6.95;;;;;;;10.56;100.00;101317.28;1730917;82;21001;-48
2022/10/28 06:18:24;;;;;;;17.62;6.08;;;;;;;10.63;100.00;101318.70;1727111;82;20998;-39
2022/10/28 06:20:54;;;;;;;12.18;6.58;;;;;;;10.71;100.00;101314.89;1736454;82;21036;-39
2022/10/28 06:23:22;;;;;;;10.30;6.45;;;;;;;10.82;100.00;101319.87;1728924;80;21524;-48
2022/10/28 06:25:48;;;;;;;12.65;6.25;;;;;;;10.92;100.00;101325.70;1723142;82;21477;-39
2022/10/28 06:28:17;;;;;;;8.48;5.67;;;;;;;11.01;100.00;101324.06;1723405;82;21057;-39
2022/10/28 06:30:43;;;;;;;12.85;6.92;;;;;;;11.06;100.00;101319.77;1723430;82;21035;-39
2022/10/28 06:33:10;;;;;;;8.03;5.55;;;;;;;11.09;100.00;101317.22;1738564;82;21532;-49
2022/10/28 06:35:37;;;;;;;9.95;5.28;;;;;;;11.14;100.00;101319.47;1729119;82;21026;-40
2022/10/28 06:38:03;;;;;;;9.35;5.45;;;;;;;11.19;100.00;101323.91;1723358;82;21036;-49
2022/10/28 06:40:30;;;;;;;8.50;5.67;;;;;;;11.22;100.00;101320.44;1727088;82;20954;-39
2022/10/28 06:43:03;;;;;;;7.50;5.12;;;;;;;11.22;100.00;101328.73;1735414;82;21037;-39
2022/10/28 06:45:31;;;;;;;11.95;4.95;;;;;;;11.19;100.00;101326.53;1733386;82;20974;-48
2022/10/28 06:48:00;;;;;;;10.58;5.53;;;;;;;11.19;100.00;101324.34;1741613;80;21155;-48
2022/10/28 06:50:28;;;;;;;10.58;5.15;;;;;;;11.18;100.00;101327.36;1725441;82;20995;-48
2022/10/28 06:52:58;;;;;;;8.90;5.25;;;;;;;11.19;100.00;101330.89;1722213;82;21080;-49
2022/10/28 06:55:25;;;;;;;9.45;5.35;;;;;;;11.19;100.00;101330.46;1727299;82;21449;-49
2022/10/28 06:57:53;;;;;;;7.58;5.25;;;;;;;11.23;100.00;101332.67;1730235;82;21092;-40
2022/10/28 07:00:20;;;;;;;9.60;5.75;;;;;;;11.25;100.00;101332.29;1726828;82;21458;-44
2022/10/28 07:02:52;;;;;;;6.95;5.47;;;;;;;11.28;100.00;101334.94;1735564;81;21011;-38
2022/10/28 07:05:19;;;;;;;8.58;5.67;;;;;;;11.27;100.00;101340.16;1733371;82;20973;-39
2022/10/28 07:07:45;;;;;;;7.28;5.53;;;;;;;11.24;100.00;101332.24;1733742;82;21064;-49
2022/10/28 07:10:12;;;;;;;8.45;5.20;;;;;;;11.25;100.00;101333.59;1733159;82;20977;-48
2022/10/28 07:12:39;;;;;;;10.35;6.50;;;;;;;11.27;100.00;101336.23;1741712;82;21126;-48
2022/10/28 07:15:09;;;;;;;12.43;6.25;;;;;;;11.31;100.00;101334.98;1743580;82;21065;-48
2022/10/28 07:17:36;;;;;;;7.22;5.40;;;;;;;11.35;100.00;101329.34;1734567;82;21100;-48
2022/10/28 07:20:02;;;;;;;13.50;6.08;;;;;;;11.41;100.00;101327.67;1735385;82;20989;-49
2022/10/28 07:22:30;;;;;;;8.83;5.45;;;;;;;11.43;100.00;101332.95;1728826;82;21037;-38
2022/10/28 07:24:56;;;;;;;8.38;5.70;;;;;;;11.44;100.00;101334.71;1732864;82;21530;-47
2022/10/28 07:27:23;;;;;;;8.60;5.80;;;;;;;11.47;100.00;101328.19;1734601;82;21056;-47
2022/10/28 07:29:50;;;;;;;8.90;5.92;;;;;;;11.52;100.00;101336.11;1748574;82;20977;-48
2022/10/28 07:32:16;;;;;;;11.08;6.40;;;;;;;11.55;100.00;101338.35;1739551;82;21071;-47
2022/10/28 07:34:43;;;;;;;14.13;6.17;;;;;;;11.57;100.00;101333.12;1744434;80;20990;-40
2022/10/28 07:37:11;;;;;;;12.82;6.50;;;;;;;11.62;100.00;101334.06;1734300;82;21565;-48
2022/10/28 07:39:38;;;;;;;9.63;6.12;;;;;;;11.62;99.98;101336.69;1739315;82;20974;-48
2022/10/28 07:42:06;;;;;;;9.93;5.67;;;;;;;11.61;99.81;101338.86;1734251;82;21689;-48
2022/10/28 07:44:32;;;;;;;10.85;6.80;;;;;;;11.60;99.83;101339.30;1743886;82;21551;-49
2022/10/28 07:47:00;;;;;;;9.53;6.45;;;;;;;11.58;99.40;101335.75;1748160;82;21061;-38
2022/10/28 07:49:26;;;;;;;13.32;7.20;;;;;;;11.56;99.32;101336.61;1733305;82;21589;-47
2022/10/28 07:51:53;;;;;;;16.37;7.33;;;;;;;11.53;99.30;101336.13;1742177;82;21480;-48
2022/10/28 07:54:19;;;;;;;8.55;6.37;;;;;;;11.50;99.42;101338.72;1730426;82;20973;-39
2022/10/28 07:56:48;;;;;;;12.53;6.60;;;;;;;11.49;99.58;101341.33;1752272;82;21032;-48
2022/10/28 07:59:16;;;;;;;11.53;6.78;;;;;;;11.48;99.76;101345.69;1704734;83;21068;-48
2022/10/28 08:01:42;;;;;;;9.65;7.08;;;;;;;11.49;100.00;101340.89;1735838;82;21124;-40
2022/10/28 08:04:10;;;;;;;11.30;6.65;;;;;;;11.53;100.00;101347.03;1719386;82;21046;-48
2022/10/28 08:06:38;;;;;;;11.15;6.75;;;;;;;11.53;99.95;101346.60;1729084;82;21132;-49
2022/10/28 08:09:05;;;;;;;11.50;7.28;;;;;;;11.52;99.88;101350.52;1718111;82;21029;-48
2022/10/28 08:11:31;;;;;;;9.03;6.53;;;;;;;11.51;100.00;101350.08;1723725;82;20997;-39
2022/10/28 08:14:01;;;;;;;10.65;6.35;;;;;;;11.51;100.00;101348.77;1716937;82;21422;-39
2022/10/28 08:16:27;;;;;;;16.55;8.03;;;;;;;11.51;100.00;101349.65;1710498;82;21493;-47
2022/10/28 08:18:56;;;;;;;9.08;7.03;;;;;;;11.51;100.00;101357.51;1720223;82;21037;-39
2022/10/28 08:21:23;;;;;;;13.53;6.60;;;;;;;11.54;100.00;101359.27;1712540;82;21540;-38
2022/10/28 08:23:53;;;;;;;12.45;6.70;;;;;;;11.59;100.00;101358.91;1720538;82;21525;-39
2022/10/28 08:26:21;;;;;;;10.28;6.53;;;;;;;11.65;100.00;101370.78;1723260;82;21057;-39
2022/10/28 08:28:47;;;;;;;12.28;7.40;;;;;;;11.67;100.00;101369.95;1717190;82;20974;-39
2022/10/28 08:31:14;;;;;;;12.60;7.03;;;;;;;11.69;100.00;101371.28;1722878;82;20981;-40
2022/10/28 08:33:45;;;;;;;10.93;6.55;;;;;;;11.71;100.00;101369.54;1719972;82;21545;-41
2022/10/28 08:36:14;;;;;;;10.78;7.03;;;;;;;11.75;100.00;101368.73;1711607;82;21537;-49
2022/10/28 08:38:43;;;;;;;11.65;6.87;;;;;;;11.81;100.00;101363.98;1726405;82;21410;-40
2022/10/28 08:41:41;;;;;;;8.55;6.25;;;;;;;11.84;99.63;101364.08;1719227;82;21001;-47
2022/10/28 08:44:41;;;;;;;8.43;6.30;;;;;;;11.87;99.59;101358.84;1717312;82;20954;-47
2022/10/28 08:47:59;;;;;;;9.03;6.22;;;;;;;11.91;99.18;101360.66;1716023;82;21120;-39
2022/10/28 08:50:30;;;;;;;9.88;6.72;;;;;;;11.94;98.75;101360.67;1684279;83;20991;-39
2022/10/28 08:53:08;;;;;;;10.08;6.05;;;;;;;11.99;98.72;101358.55;1679734;83;21211;-40
2022/10/28 08:55:39;;;;;;;9.40;7.00;;;;;;;12.05;98.34;101351.18;1676622;83;21505;-40
2022/10/28 08:58:22;;;;;;;10.07;6.23;;;;;;;12.10;97.70;101353.86;1677556;83;21007;-48
2022/10/28 09:00:53;;;;;;;11.70;6.70;;;;;;;12.15;97.97;101345.61;1687587;83;21021;-48
2022/10/28 09:03:32;;;;;;;7.67;6.20;;;;;;;12.24;97.68;101351.84;1683100;83;21058;-48
2022/10/28 09:06:06;;;;;;;12.15;6.45;;;;;;;12.32;97.07;101345.78;1676450;85;21012;-39
2022/10/28 09:08:45;;;;;;;9.28;6.85;;;;;;;12.37;95.94;101343.64;1681931;85;21384;-40
2022/10/28 09:11:41;;;;;;;9.45;6.17;;;;;;;12.38;95.77;101345.40;1686480;83;20996;-49
2022/10/28 09:14:40;;;;;;;11.80;6.53;;;;;;;12.43;95.86;101341.07;1671681;84;21480;-46
2022/10/28 09:17:21;;;;;;;9.95;6.78;;;;;;;12.51;95.61;101338.07;1677312;84;21413;-41
2022/10/28 09:19:58;;;;;;;10.18;7.08;;;;;;;12.60;95.53;101337.72;1679726;85;20972;-47
2022/10/28 09:22:53;;;;;;;9.35;6.15;;;;;;;12.67;94.67;101332.95;1682806;84;21072;-49
2022/10/28 09:25:28;;;;;;;14.47;6.90;;;;;;;12.70;93.95;101339.13;1655127;84;21035;-48
2022/10/28 09:28:13;;;;;;;11.20;6.72;;;;;;;12.69;93.07;101340.40;1727200;82;21029;-41
2022/10/28 09:31:01;;;;;;;10.72;7.45;;;;;;;12.69;93.12;101337.77;1731496;82;20934;-48
2022/10/28 09:33:49;;;;;;;10.18;6.97;;;;;;;12.74;93.71;101334.75;1728409;82;21924;-40
2022/10/28 09:36:21;;;;;;;12.18;7.15;;;;;;;12.82;93.18;101337.02;1728699;82;21449;-39
2022/10/28 09:38:50;;;;;;;9.65;6.47;;;;;;;12.90;92.91;101331.81;1732138;80;21036;-48
2022/10/28 09:41:26;;;;;;;11.28;5.67;;;;;;;12.97;91.99;101335.80;1710748;80;20941;-40
2022/10/28 09:43:58;;;;;;;13.38;7.05;;;;;;;13.01;91.74;101328.39;1730958;82;21044;-49
2022/10/28 09:46:25;;;;;;;9.05;5.62;;;;;;;13.07;91.23;101331.92;1729772;80;21496;-39
2022/10/28 09:48:54;;;;;;;7.12;5.03;;;;;;;13.10;90.92;101331.93;1733169;81;21024;-39
2022/10/28 09:51:42;;;;;;;9.45;6.17;;;;;;;13.07;90.28;101331.92;1735055;80;21574;-38
2022/10/28 09:54:07;;;;;;;6.92;6.00;;;;;;;13.04;90.57;101333.68;1733181;82;21630;-40
2022/10/28 09:56:34;;;;;;;13.75;6.08;;;;;;;13.04;90.24;101330.14;1725177;82;21146;-40
2022/10/28 09:59:01;;;;;;;8.08;6.10;;;;;;;13.03;90.46;101333.64;1729827;80;21016;-49
2022/10/28 10:01:34;;;;;;;10.55;6.35;;;;;;;13.07;91.22;101327.98;1724343;82;21512;-48
2022/10/28 10:04:01;;;;;;;8.73;6.45;;;;;;;13.12;91.58;101322.33;1719781;82;21029;-41
2022/10/28 10:06:36;;;;;;;12.53;6.22;;;;;;;13.19;91.29;101322.80;1720448;82;20977;-49
2022/10/28 10:09:03;;;;;;;9.80;6.15;;;;;;;13.23;90.21;101326.80;1671144;83;21428;-48
2022/10/28 10:11:44;;;;;;;7.33;5.22;;;;;;;13.27;89.97;101321.98;1670385;85;20974;-48
2022/10/28 10:14:16;;;;;;;7.35;5.85;;;;;;;13.30;89.53;101323.33;1698894;82;21457;-40
2022/10/28 10:16:57;;;;;;;8.00;5.95;;;;;;;13.33;88.83;101321.58;1723070;82;21031;-39
2022/10/28 10:19:23;;;;;;;8.40;5.35;;;;;;;13.38;88.33;101327.30;1716114;82;21419;-48
2022/10/28 10:21:53;;;;;;;7.47;5.62;;;;;;;13.41;86.76;101322.52;1722472;81;21587;-38
2022/10/28 10:24:34;;;;;;;9.00;5.12;;;;;;;13.39;85.85;101319.86;1659248;84;21012;-49
2022/10/28 10:27:14;;;;;;;16.62;6.70;;;;;;;13.38;85.51;101318.54;1681527;84;21053;-48
2022/10/28 10:29:43;;;;;;;8.28;5.17;;;;;;;13.39;84.94;101322.92;1686451;84;21439;-49
2022/10/28 10:32:19;;;;;;;8.93;5.67;;;;;;;13.38;84.85;101314.16;1683572;84;21057;-39
2022/10/28 10:35:02;;;;;;;5.80;5.03;;;;;;;13.38;84.00;101315.47;1681380;84;21150;-49
2022/10/28 10:37:33;;;;;;;9.10;6.65;;;;;;;13.38;84.58;101308.91;1674377;84;21148;-41
2022/10/28 10:40:08;;;;;;;8.50;5.67;;;;;;;13.42;84.80;101309.81;1684484;84;21867;-41
2022/10/28 10:42:36;;;;;;;14.60;5.58;;;;;;;13.44;84.87;101308.05;1693367;84;21131;-40
2022/10/28 10:45:17;;;;;;;9.05;5.92;;;;;;;13.47;83.16;101302.83;1695946;84;21005;-40
2022/10/28 10:47:44;;;;;;;7.22;5.17;;;;;;;13.47;82.66;101298.88;1687169;84;21120;-41
2022/10/28 10:50:30;;;;;;;6.78;5.42;;;;;;;13.42;82.64;101303.23;1687402;84;21424;-39
2022/10/28 10:52:58;;;;;;;10.60;5.37;;;;;;;13.38;82.81;101297.08;1693289;84;21055;-48
2022/10/28 10:55:36;;;;;;;8.93;4.95;;;;;;;13.40;82.85;101302.36;1733170;82;20982;-40
2022/10/28 10:58:05;;;;;;;9.78;5.60;;;;;;;13.43;81.41;101307.61;1726620;82;21053;-48
2022/10/28 11:00:36;;;;;;;9.28;5.80;;;;;;;13.39;80.09;101301.45;1703739;82;21029;-48
2022/10/28 11:03:05;;;;;;;9.83;6.00;;;;;;;13.33;80.61;101298.80;1711814;83;21618;-48
2022/10/28 11:05:31;;;;;;;5.20;4.35;;;;;;;13.31;81.15;101301.87;1729354;82;21600;-40
2022/10/28 11:07:58;;;;;;;7.17;5.40;;;;;;;13.30;81.19;101303.63;1748645;82;21060;-48
2022/10/28 11:10:28;;;;;;;7.67;5.85;;;;;;;13.29;80.90;101298.37;1731261;82;21496;-40
2022/10/28 11:13:00;;;;;;;10.68;5.80;;;;;;;13.27;80.83;101292.20;1719722;83;21494;-39
2022/10/28 11:15:29;;;;;;;11.12;5.72;;;;;;;13.26;80.72;101295.71;1732147;82;21029;-40
2022/10/28 11:18:02;;;;;;;7.72;5.35;;;;;;;13.23;80.63;101299.21;1720545;83;21025;-48
2022/10/28 11:21:03;;;;;;;6.90;5.08;;;;;;;13.21;81.25;101290.42;1719112;82;21014;-39
2022/10/28 11:23:44;;;;;;;9.63;5.62;;;;;;;13.21;81.14;101291.73;1745524;82;21584;-39
2022/10/28 11:26:13;;;;;;;10.32;5.30;;;;;;;13.19;79.80;101295.21;1735919;81;20997;-40
2022/10/28 11:29:13;;;;;;;9.43;6.12;;;;;;;13.11;79.66;101288.61;1722190;82;21096;-40
2022/10/28 11:32:20;;;;;;;11.38;6.70;;;;;;;13.08;80.36;101289.02;1722283;82;21133;-39
2022/10/28 11:35:11;;;;;;;8.85;6.08;;;;;;;13.02;80.80;101293.36;1737654;82;21435;-47
2022/10/28 11:38:14;;;;;;;9.85;5.22;;;;;;;12.99;80.77;101289.42;1747378;80;21035;-39